Time;durP1;ratioP1;P1;durP2;ratioP2;P2;SDS_P1;SDS_P2;PMS_P1;PMS_P2;Temp;Humidity;BMP_temperature;BMP_pressure;BME280_temperature;BME280_humidity;BME280_pressure;Samples;Min_cycle;Max_cycle;Signal;HPM_P1;HPM_P2
2022/08/23 00:00:30;;;;;;;;;;;20.50;99.90;;;;;;5067462;28;20268;-73
2022/08/23 00:02:56;;;;;;;;;;;20.40;99.90;;;;;;5065075;28;19909;-73
2022/08/23 00:05:21;;;;;;;;;;;20.40;99.90;;;;;;5056303;28;19934;-83
2022/08/23 00:07:47;;;;;;;;;;;20.50;99.90;;;;;;5055900;28;19920;-83
2022/08/23 00:10:13;;;;;;;;;;;20.50;99.90;;;;;;5055834;28;19909;-72
2022/08/23 00:12:39;;;;;;;;;;;20.50;99.90;;;;;;5055205;28;20284;-83
2022/08/23 00:15:05;;;;;;;;;;;20.50;99.90;;;;;;5056018;28;19908;-83
2022/08/23 00:17:31;;;;;;;;;;;20.50;99.90;;;;;;5055869;28;19913;-84
2022/08/23 00:19:56;;;;;;;;;;;20.50;99.90;;;;;;5055575;28;20404;-83
2022/08/23 00:22:22;;;;;;;;;;;20.50;99.90;;;;;;5058147;28;19956;-81
2022/08/23 00:24:48;;;;;;;;;;;20.50;99.90;;;;;;5048777;28;19909;-73
2022/08/23 00:27:16;;;;;;;;;;;20.50;99.90;;;;;;5055734;28;19908;-72
2022/08/23 00:29:41;;;;;;;;;;;20.50;99.90;;;;;;5054391;28;19921;-73
2022/08/23 00:32:08;;;;;;;;;;;20.50;99.90;;;;;;5054339;28;19920;-83
2022/08/23 00:34:34;;;;;;;;;;;20.50;99.90;;;;;;5055780;28;19916;-83
2022/08/23 00:36:59;;;;;;;;;;;20.50;99.90;;;;;;5055260;28;19913;-73
2022/08/23 00:39:25;;;;;;;;;;;20.50;99.90;;;;;;5055683;28;19959;-73
2022/08/23 00:41:54;;;;;;;;;;;20.50;99.90;;;;;;5055367;28;19908;-83
2022/08/23 00:49:56;;;;;;;;;;;20.50;99.90;;;;;;5056571;28;19932;-83
2022/08/23 00:52:26;;;;;;;;;;;20.50;99.90;;;;;;5055306;28;19931;-73
2022/08/23 00:54:52;;;;;;;;;;;20.50;99.90;;;;;;5050283;28;19909;-73
2022/08/23 00:57:18;;;;;;;;;;;20.50;99.90;;;;;;5055167;28;19909;-83
2022/08/23 00:59:45;;;;;;;;;;;20.50;99.90;;;;;;5067473;28;20414;-83
2022/08/23 01:02:11;;;;;;;;;;;20.50;99.90;;;;;;5063445;28;19908;-83
2022/08/23 01:04:39;;;;;;;;;;;20.50;99.90;;;;;;5055397;28;19915;-73
2022/08/23 01:07:07;;;;;;;;;;;20.50;99.90;;;;;;5055128;28;19909;-73
2022/08/23 01:09:33;;;;;;;;;;;20.50;99.90;;;;;;5054124;28;19999;-83
2022/08/23 01:12:03;;;;;;;;;;;20.50;99.90;;;;;;5054471;28;20051;-83
2022/08/23 01:14:29;;;;;;;;;;;20.50;99.90;;;;;;5054681;28;19909;-83
2022/08/23 01:17:09;;;;;;;;;;;20.50;99.90;;;;;;5054473;28;19959;-82
2022/08/23 01:19:35;;;;;;;;;;;20.50;99.90;;;;;;5054282;28;19942;-73
2022/08/23 01:22:12;;;;;;;;;;;20.50;99.90;;;;;;5057409;28;19908;-73
2022/08/23 01:24:38;;;;;;;;;;;20.50;99.90;;;;;;5047301;28;19980;-83
2022/08/23 01:27:04;;;;;;;;;;;20.50;99.90;;;;;;5054635;28;19909;-83
2022/08/23 01:29:29;;;;;;;;;;;20.50;99.90;;;;;;5053400;28;20272;-84
2022/08/23 01:31:55;;;;;;;;;;;20.50;99.90;;;;;;5054563;28;20322;-73
2022/08/23 01:34:24;;;;;;;;;;;20.50;99.90;;;;;;5055253;28;20023;-83
2022/08/23 01:36:49;;;;;;;;;;;20.50;99.90;;;;;;5054001;28;20418;-72
2022/08/23 01:39:15;;;;;;;;;;;20.50;99.90;;;;;;5054475;28;19912;-83
2022/08/23 01:41:40;;;;;;;;;;;20.40;99.90;;;;;;5054263;28;19908;-83
2022/08/23 01:44:06;;;;;;;;;;;20.40;99.90;;;;;;5056522;28;19979;-73
2022/08/23 01:46:31;;;;;;;;;;;20.40;99.90;;;;;;5054337;28;20303;-73
2022/08/23 01:48:57;;;;;;;;;;;20.40;99.90;;;;;;5060303;28;19912;-73
2022/08/23 01:51:23;;;;;;;;;;;20.40;99.90;;;;;;5054207;28;20442;-82
2022/08/23 01:53:49;;;;;;;;;;;20.40;99.90;;;;;;5051865;28;19909;-83
2022/08/23 01:56:18;;;;;;;;;;;20.40;99.90;;;;;;5050066;28;20410;-73
2022/08/23 01:58:44;;;;;;;;;;;20.40;99.90;;;;;;5053732;28;19909;-73
2022/08/23 02:01:09;;;;;;;;;;;20.40;99.90;;;;;;5058933;28;19908;-83
2022/08/23 02:03:36;;;;;;;;;;;20.40;99.90;;;;;;5052789;28;19959;-83
2022/08/23 02:06:02;;;;;;;;;;;20.30;99.90;;;;;;5053853;28;19959;-80
2022/08/23 02:11:14;;;;;;;;;;;20.40;99.90;;;;;;5053626;28;19959;-82
2022/08/23 02:13:40;;;;;;;;;;;20.40;99.90;;;;;;5053615;28;19967;-81
2022/08/23 02:16:05;;;;;;;;;;;20.30;99.90;;;;;;5053619;28;19909;-82
2022/08/23 02:18:31;;;;;;;;;;;20.40;99.90;;;;;;5053460;28;19909;-83
2022/08/23 02:20:56;;;;;;;;;;;20.30;99.90;;;;;;5057306;28;19955;-83
2022/08/23 02:23:22;;;;;;;;;;;20.30;99.90;;;;;;5046626;28;19963;-73
2022/08/23 02:25:50;;;;;;;;;;;20.40;99.90;;;;;;5053552;28;19915;-73
2022/08/23 02:28:16;;;;;;;;;;;20.40;99.90;;;;;;5053279;28;19939;-82
2022/08/23 02:30:43;;;;;;;;;;;20.40;99.90;;;;;;5052500;28;20011;-83
2022/08/23 02:33:09;;;;;;;;;;;20.50;99.90;;;;;;5053869;28;19916;-83
2022/08/23 02:35:34;;;;;;;;;;;20.40;99.90;;;;;;5057747;28;20435;-82
2022/08/23 02:38:10;;;;;;;;;;;20.40;99.90;;;;;;5053412;28;19958;-73
2022/08/23 02:40:36;;;;;;;;;;;20.40;99.90;;;;;;5053260;28;19909;-73
2022/08/23 02:43:02;;;;;;;;;;;20.40;99.90;;;;;;5053145;28;19962;-82
2022/08/23 02:45:27;;;;;;;;;;;20.40;99.90;;;;;;5055214;28;19998;-73
2022/08/23 02:47:53;;;;;;;;;;;20.40;99.90;;;;;;5058278;28;19915;-73
2022/08/23 02:50:20;;;;;;;;;;;20.40;99.90;;;;;;5053126;28;19912;-73
2022/08/23 02:52:45;;;;;;;;;;;20.40;99.90;;;;;;5053097;28;20336;-73
2022/08/23 02:55:11;;;;;;;;;;;20.40;99.90;;;;;;5053041;28;19958;-82
2022/08/23 02:57:38;;;;;;;;;;;20.40;99.90;;;;;;5052698;28;20291;-83
2022/08/23 03:00:06;;;;;;;;;;;20.40;99.90;;;;;;5065620;28;19909;-73
2022/08/23 03:02:31;;;;;;;;;;;20.40;99.90;;;;;;5061666;28;20290;-73
2022/08/23 03:04:57;;;;;;;;;;;20.40;99.90;;;;;;5053205;28;19913;-72
2022/08/23 03:07:22;;;;;;;;;;;20.40;99.90;;;;;;5052951;28;20288;-73
2022/08/23 03:09:48;;;;;;;;;;;20.40;99.90;;;;;;5052609;28;19916;-73
2022/08/23 03:12:13;;;;;;;;;;;20.40;99.90;;;;;;5051115;28;19917;-73
2022/08/23 03:14:39;;;;;;;;;;;20.40;99.90;;;;;;5052568;28;19913;-72
2022/08/23 03:17:06;;;;;;;;;;;20.40;99.90;;;;;;5052959;28;20339;-83
2022/08/23 03:19:32;;;;;;;;;;;20.40;99.90;;;;;;5052637;28;19954;-72
2022/08/23 03:21:58;;;;;;;;;;;20.50;99.90;;;;;;5054985;28;20384;-82
2022/08/23 03:24:24;;;;;;;;;;;20.50;99.90;;;;;;5045926;28;19912;-82
2022/08/23 03:26:49;;;;;;;;;;;20.50;99.90;;;;;;5052725;28;19909;-72
2022/08/23 03:29:15;;;;;;;;;;;20.50;99.90;;;;;;5052040;28;19974;-72
2022/08/23 03:31:41;;;;;;;;;;;20.50;99.90;;;;;;5051955;28;19924;-82
2022/08/23 03:34:07;;;;;;;;;;;20.50;99.90;;;;;;5060459;28;19998;-83
2022/08/23 03:36:32;;;;;;;;;;;20.50;99.90;;;;;;5056539;28;19999;-82
2022/08/23 03:38:58;;;;;;;;;;;20.50;99.90;;;;;;5056475;28;19916;-83
2022/08/23 03:41:24;;;;;;;;;;;20.40;99.90;;;;;;5056026;28;19909;-82
2022/08/23 03:43:51;;;;;;;;;;;20.50;99.90;;;;;;5058134;28;19959;-82
2022/08/23 03:46:23;;;;;;;;;;;20.50;99.90;;;;;;5056521;28;19916;-82
2022/08/23 03:48:49;;;;;;;;;;;20.50;99.90;;;;;;5061137;28;20284;-83
2022/08/23 03:51:16;;;;;;;;;;;20.50;99.90;;;;;;5056558;28;20364;-72
2022/08/23 03:53:41;;;;;;;;;;;20.50;99.90;;;;;;5056115;28;20364;-82
2022/08/23 03:56:07;;;;;;;;;;;20.50;99.90;;;;;;5056239;28;19967;-73
2022/08/23 03:58:32;;;;;;;;;;;20.50;99.90;;;;;;5060704;28;19908;-82
2022/08/23 04:00:58;;;;;;;;;;;20.50;99.90;;;;;;5059747;28;20441;-83
2022/08/23 04:03:23;;;;;;;;;;;20.50;99.90;;;;;;5064938;28;19909;-82
2022/08/23 04:05:49;;;;;;;;;;;20.50;99.90;;;;;;5056211;28;19908;-83
2022/08/23 04:08:14;;;;;;;;;;;20.50;99.90;;;;;;5055960;28;19909;-73
2022/08/23 04:10:40;;;;;;;;;;;20.50;99.90;;;;;;5055822;28;19909;-82
2022/08/23 04:13:07;;;;;;;;;;;20.50;99.90;;;;;;5055364;28;20395;-83
2022/08/23 04:15:33;;;;;;;;;;;20.50;99.90;;;;;;5056119;28;19909;-83
2022/08/23 04:17:59;;;;;;;;;;;20.50;99.90;;;;;;5055003;28;19920;-83
2022/08/23 04:20:25;;;;;;;;;;;20.50;99.90;;;;;;5056836;28;19912;-82
2022/08/23 04:22:51;;;;;;;;;;;20.50;99.90;;;;;;5054840;28;19908;-82
2022/08/23 04:25:16;;;;;;;;;;;20.50;99.90;;;;;;5051157;28;20257;-82
2022/08/23 04:27:42;;;;;;;;;;;20.50;99.90;;;;;;5055436;28;19939;-81
2022/08/23 04:30:08;;;;;;;;;;;20.50;99.90;;;;;;5055302;28;19924;-82
2022/08/23 04:32:33;;;;;;;;;;;20.50;99.90;;;;;;5054530;28;20366;-72
2022/08/23 04:34:59;;;;;;;;;;;20.50;99.90;;;;;;5056734;28;20008;-72
2022/08/23 04:37:24;;;;;;;;;;;20.60;99.90;;;;;;5055608;28;19999;-73
2022/08/23 04:42:34;;;;;;;;;;;20.50;99.90;;;;;;5055453;28;19935;-73
2022/08/23 04:45:00;;;;;;;;;;;20.50;99.90;;;;;;5056077;28;19908;-82
2022/08/23 04:47:25;;;;;;;;;;;20.50;99.90;;;;;;5058540;28;19916;-82
2022/08/23 04:49:51;;;;;;;;;;;20.50;99.90;;;;;;5058275;28;19908;-73
2022/08/23 04:52:16;;;;;;;;;;;20.50;99.90;;;;;;5040172;28;19917;-81
2022/08/23 04:54:42;;;;;;;;;;;20.50;99.90;;;;;;5049005;28;20015;-82
2022/08/23 04:57:07;;;;;;;;;;;20.50;99.90;;;;;;5054445;28;19917;-83
2022/08/23 04:59:33;;;;;;;;;;;20.50;99.90;;;;;;5065304;28;20360;-73
2022/08/23 05:01:59;;;;;;;;;;;20.50;99.90;;;;;;5061871;28;20333;-72
2022/08/23 05:04:24;;;;;;;;;;;20.50;99.90;;;;;;5056963;28;19999;-72
2022/08/23 05:06:51;;;;;;;;;;;20.50;99.90;;;;;;5055117;28;19909;-72
2022/08/23 05:09:16;;;;;;;;;;;20.50;99.90;;;;;;5055081;28;19908;-82
2022/08/23 05:11:42;;;;;;;;;;;20.60;99.90;;;;;;5053637;28;20335;-72
2022/08/23 05:14:07;;;;;;;;;;;20.50;99.90;;;;;;5054719;28;19913;-73
2022/08/23 05:16:33;;;;;;;;;;;20.60;99.90;;;;;;5055011;28;19909;-81
2022/08/23 05:18:58;;;;;;;;;;;20.60;99.90;;;;;;5054448;28;19909;-72
2022/08/23 05:21:24;;;;;;;;;;;20.60;99.90;;;;;;5056438;28;19908;-82
2022/08/23 05:23:49;;;;;;;;;;;20.60;99.90;;;;;;5048700;28;20287;-82
2022/08/23 05:26:15;;;;;;;;;;;20.60;99.90;;;;;;5054719;28;20280;-82
2022/08/23 05:28:42;;;;;;;;;;;20.60;99.90;;;;;;5053526;28;19920;-72
2022/08/23 05:31:09;;;;;;;;;;;20.60;99.90;;;;;;5054527;28;19917;-73
2022/08/23 05:33:36;;;;;;;;;;;20.60;99.90;;;;;;5055489;28;20287;-72
2022/08/23 05:36:02;;;;;;;;;;;20.70;99.90;;;;;;5053008;28;19916;-81
2022/08/23 05:38:28;;;;;;;;;;;20.70;99.90;;;;;;5054361;28;20035;-72
2022/08/23 05:40:56;;;;;;;;;;;20.70;99.90;;;;;;5054382;28;19963;-72
2022/08/23 05:43:22;;;;;;;;;;;20.70;99.90;;;;;;5056205;28;19908;-82
2022/08/23 05:45:57;;;;;;;;;;;20.70;99.90;;;;;;5051921;28;20403;-82
2022/08/23 05:48:23;;;;;;;;;;;20.80;99.90;;;;;;5052829;28;19913;-82
2022/08/23 05:50:48;;;;;;;;;;;20.80;99.90;;;;;;5054017;28;20260;-72
2022/08/23 05:53:14;;;;;;;;;;;20.80;99.90;;;;;;5053736;28;19917;-72
2022/08/23 05:55:40;;;;;;;;;;;20.90;99.90;;;;;;5053234;28;19940;-81
2022/08/23 05:58:05;;;;;;;;;;;20.90;99.90;;;;;;5054121;28;19913;-72
2022/08/23 06:00:31;;;;;;;;;;;20.90;99.90;;;;;;5065357;28;19924;-72
2022/08/23 06:02:57;;;;;;;;;;;21.00;99.90;;;;;;5062919;28;19935;-81
2022/08/23 06:05:22;;;;;;;;;;;21.00;99.90;;;;;;5053589;28;20319;-72
2022/08/23 06:07:48;;;;;;;;;;;21.00;99.90;;;;;;5051691;28;19915;-78
2022/08/23 06:10:14;;;;;;;;;;;21.10;99.90;;;;;;5052606;28;19963;-82
2022/08/23 06:12:40;;;;;;;;;;;21.00;99.90;;;;;;5052000;28;19966;-72
2022/08/23 06:15:06;;;;;;;;;;;21.10;99.90;;;;;;5051407;28;19917;-81
2022/08/23 06:17:31;;;;;;;;;;;21.10;99.90;;;;;;5050383;28;20341;-71
2022/08/23 06:19:57;;;;;;;;;;;21.10;99.90;;;;;;5046721;28;20439;-72
2022/08/23 06:22:22;;;;;;;;;;;21.10;99.90;;;;;;5047006;28;20660;-78
2022/08/23 06:24:48;;;;;;;;;;;21.10;99.90;;;;;;5046023;28;19921;-79
2022/08/23 06:27:14;;;;;;;;;;;21.10;99.90;;;;;;5052869;28;19912;-79
2022/08/23 06:29:39;;;;;;;;;;;21.10;99.90;;;;;;5048393;28;20346;-78
2022/08/23 06:32:05;;;;;;;;;;;21.10;99.90;;;;;;5051407;28;20288;-71
2022/08/23 06:34:35;;;;;;;;;;;21.10;99.90;;;;;;5062348;28;19912;-80
2022/08/23 06:37:04;;;;;;;;;;;21.10;99.90;;;;;;5052381;28;21324;-80
2022/08/23 06:39:30;;;;;;;;;;;21.10;99.90;;;;;;5053065;28;19909;-72
2022/08/23 06:41:59;;;;;;;;;;;21.10;99.90;;;;;;5052908;28;19909;-71
2022/08/23 06:44:26;;;;;;;;;;;21.20;99.90;;;;;;5054627;28;19917;-71
2022/08/23 06:46:51;;;;;;;;;;;21.10;99.90;;;;;;5051913;28;20011;-80
2022/08/23 06:49:17;;;;;;;;;;;21.10;99.90;;;;;;5056889;28;20367;-79
2022/08/23 06:51:44;;;;;;;;;;;21.10;99.90;;;;;;5049943;28;19909;-79
2022/08/23 06:54:12;;;;;;;;;;;21.10;99.90;;;;;;5050187;28;19923;-72
2022/08/23 06:56:39;;;;;;;;;;;21.10;99.90;;;;;;5050533;28;19913;-71
2022/08/23 06:59:05;;;;;;;;;;;21.10;99.90;;;;;;5053305;28;19931;-71
2022/08/23 07:01:32;;;;;;;;;;;21.10;99.90;;;;;;5058170;28;20027;-71
2022/08/23 07:03:59;;;;;;;;;;;21.20;99.90;;;;;;5057467;28;19920;-80
2022/08/23 07:06:25;;;;;;;;;;;21.20;99.90;;;;;;5048104;28;19970;-76
2022/08/23 07:08:52;;;;;;;;;;;21.20;99.90;;;;;;5051819;28;19916;-71
2022/08/23 07:11:18;;;;;;;;;;;21.20;99.90;;;;;;5050054;28;19913;-71
2022/08/23 07:13:44;;;;;;;;;;;21.00;99.90;;;;;;5046988;28;20288;-79
2022/08/23 07:16:09;;;;;;;;;;;21.10;99.90;;;;;;5045646;28;19916;-80
2022/08/23 07:18:35;;;;;;;;;;;21.20;99.90;;;;;;5043437;28;19925;-80
2022/08/23 07:21:01;;;;;;;;;;;21.20;99.90;;;;;;5053025;28;19915;-71
2022/08/23 07:23:32;;;;;;;;;;;21.30;99.90;;;;;;5050221;28;19915;-71
2022/08/23 07:26:01;;;;;;;;;;;21.40;99.90;;;;;;5051146;28;20065;-80
2022/08/23 07:28:27;;;;;;;;;;;21.40;99.90;;;;;;5041504;28;19928;-80
2022/08/23 07:30:57;;;;;;;;;;;21.50;99.90;;;;;;5047768;28;20406;-79
2022/08/23 07:33:23;;;;;;;;;;;21.50;99.90;;;;;;5052079;28;19917;-71
2022/08/23 07:35:49;;;;;;;;;;;21.60;99.90;;;;;;5049365;28;19916;-71
2022/08/23 07:38:15;;;;;;;;;;;21.60;99.90;;;;;;5056457;28;20007;-71
2022/08/23 07:40:41;;;;;;;;;;;21.70;99.90;;;;;;5045785;28;20005;-71
2022/08/23 07:43:06;;;;;;;;;;;21.70;99.90;;;;;;5050869;28;19916;-71
2022/08/23 07:45:32;;;;;;;;;;;21.70;99.90;;;;;;5044930;28;20346;-81
2022/08/23 07:47:59;;;;;;;;;;;21.80;99.90;;;;;;5049136;28;19920;-72
2022/08/23 07:50:25;;;;;;;;;;;21.90;99.90;;;;;;5046234;28;19988;-72
2022/08/23 07:52:51;;;;;;;;;;;22.00;99.90;;;;;;5051006;28;19913;-80
2022/08/23 07:55:16;;;;;;;;;;;22.20;99.90;;;;;;5049704;28;20315;-80
2022/08/23 07:57:42;;;;;;;;;;;22.30;99.90;;;;;;5051212;28;19919;-73
2022/08/23 08:00:08;;;;;;;;;;;22.60;99.90;;;;;;5049765;28;19913;-72
2022/08/23 08:02:33;;;;;;;;;;;23.00;99.90;;;;;;5051739;28;19935;-72
2022/08/23 08:04:59;;;;;;;;;;;23.40;99.90;;;;;;5043134;28;19923;-73
2022/08/23 08:07:26;;;;;;;;;;;25.00;99.90;;;;;;5050919;28;19909;-81
2022/08/23 08:09:52;;;;;;;;;;;27.00;99.90;;;;;;5051345;28;19908;-81
2022/08/23 08:12:18;;;;;;;;;;;26.30;99.90;;;;;;5047941;28;20296;-81
2022/08/23 08:14:44;;;;;;;;;;;25.00;99.90;;;;;;5045112;28;19909;-72
2022/08/23 08:17:09;;;;;;;;;;;24.20;99.90;;;;;;5045426;28;19909;-72
2022/08/23 08:19:35;;;;;;;;;;;23.70;99.90;;;;;;5051200;28;19913;-72
2022/08/23 08:22:00;;;;;;;;;;;23.40;99.90;;;;;;5059148;28;19920;-72
2022/08/23 08:24:26;;;;;;;;;;;23.10;99.90;;;;;;5049821;28;19952;-80
2022/08/23 08:26:51;;;;;;;;;;;22.90;99.90;;;;;;5050469;28;19995;-72
2022/08/23 08:29:17;;;;;;;;;;;22.80;99.90;;;;;;5041153;28;20434;-72
2022/08/23 08:31:44;;;;;;;;;;;22.80;99.90;;;;;;5044920;28;20002;-72
2022/08/23 08:34:10;;;;;;;;;;;23.00;99.90;;;;;;5052652;28;19909;-81
2022/08/23 08:36:36;;;;;;;;;;;23.00;99.90;;;;;;5042086;28;20303;-77
2022/08/23 08:39:04;;;;;;;;;;;23.10;99.90;;;;;;5044355;28;19913;-71
2022/08/23 08:41:48;;;;;;;;;;;23.40;99.90;;;;;;5044212;28;19923;-71
2022/08/23 08:44:32;;;;;;;;;;;23.70;99.90;;;;;;5045285;28;20341;-79
2022/08/23 08:46:58;;;;;;;;;;;23.80;99.90;;;;;;5050427;28;20467;-80
2022/08/23 08:49:30;;;;;;;;;;;23.80;99.90;;;;;;5052082;28;20475;-78
2022/08/23 08:51:59;;;;;;;;;;;23.80;99.90;;;;;;5051507;28;19917;-71
2022/08/23 08:54:26;;;;;;;;;;;23.60;99.90;;;;;;5052328;28;21351;-72
2022/08/23 08:56:53;;;;;;;;;;;23.80;99.90;;;;;;5051889;28;19940;-79
2022/08/23 08:59:23;;;;;;;;;;;23.90;99.90;;;;;;5047994;28;20364;-80
2022/08/23 09:01:49;;;;;;;;;;;24.20;99.90;;;;;;5052117;28;19917;-78
2022/08/23 09:04:15;;;;;;;;;;;24.60;99.90;;;;;;5051336;28;20718;-77
2022/08/23 09:06:47;;;;;;;;;;;27.30;99.90;;;;;;5050764;28;19913;-72
2022/08/23 09:09:12;;;;;;;;;;;29.60;99.90;;;;;;5040702;28;20491;-72
2022/08/23 09:11:53;;;;;;;;;;;29.60;99.90;;;;;;5048003;28;20016;-77
2022/08/23 09:14:43;;;;;;;;;;;28.50;99.90;;;;;;5045543;28;19921;-76
2022/08/23 09:17:28;;;;;;;;;;;28.70;99.90;;;;;;5049417;28;19979;-77
2022/08/23 09:19:56;;;;;;;;;;;27.50;99.90;;;;;;5046674;28;19913;-77
2022/08/23 09:22:29;;;;;;;;;;;25.80;99.90;;;;;;5051362;28;20068;-72
2022/08/23 09:24:56;;;;;;;;;;;24.10;99.90;;;;;;5049500;28;20360;-76
2022/08/23 09:27:21;;;;;;;;;;;23.60;99.90;;;;;;5044517;28;19968;-78
2022/08/23 09:29:52;;;;;;;;;;;23.20;99.90;;;;;;5045955;28;19921;-76
2022/08/23 09:32:29;;;;;;;;;;;23.00;99.90;;;;;;5043746;28;19932;-76
2022/08/23 09:35:27;;;;;;;;;;;23.00;99.90;;;;;;5046003;28;19913;-73
2022/08/23 09:37:56;;;;;;;;;;;23.00;99.90;;;;;;5029985;28;19920;-77
2022/08/23 09:40:25;;;;;;;;;;;23.00;99.90;;;;;;5044740;28;20296;-77
2022/08/23 09:43:07;;;;;;;;;;;23.10;99.90;;;;;;5051818;28;19955;-76
2022/08/23 09:45:34;;;;;;;;;;;23.30;99.90;;;;;;5051866;28;20348;-77
2022/08/23 09:47:59;;;;;;;;;;;23.40;99.90;;;;;;5052717;28;19927;-73
2022/08/23 09:50:27;;;;;;;;;;;23.50;99.90;;;;;;5050287;28;19921;-76
2022/08/23 09:52:54;;;;;;;;;;;23.50;99.90;;;;;;5050247;28;19916;-77
2022/08/23 09:55:30;;;;;;;;;;;23.40;99.90;;;;;;5039598;28;19913;-76
2022/08/23 09:57:56;;;;;;;;;;;23.70;99.90;;;;;;5045618;28;19916;-73
2022/08/23 10:00:24;;;;;;;;;;;23.90;99.90;;;;;;5042490;28;19923;-74
2022/08/23 10:02:51;;;;;;;;;;;24.20;99.90;;;;;;5042954;28;19913;-77
2022/08/23 10:05:19;;;;;;;;;;;24.50;99.90;;;;;;5039179;28;20023;-77
2022/08/23 10:07:55;;;;;;;;;;;24.80;99.90;;;;;;5049665;28;19913;-77
2022/08/23 10:10:27;;;;;;;;;;;24.70;99.90;;;;;;5046468;28;19917;-73
2022/08/23 10:12:54;;;;;;;;;;;25.10;99.90;;;;;;5046843;28;19917;-73
2022/08/23 10:15:21;;;;;;;;;;;25.70;99.90;;;;;;5039630;28;19936;-77
2022/08/23 10:17:49;;;;;;;;;;;25.80;99.90;;;;;;5042175;28;20295;-77
2022/08/23 10:20:20;;;;;;;;;;;25.90;99.90;;;;;;5044229;28;20019;-73
2022/08/23 10:22:54;;;;;;;;;;;26.50;99.90;;;;;;5044945;28;19912;-73
2022/08/23 10:25:28;;;;;;;;;;;26.80;99.90;;;;;;5047130;28;20015;-73
2022/08/23 10:31:04;;;;;;;;;;;26.60;99.90;;;;;;5039704;28;19928;-76
2022/08/23 10:33:39;;;;;;;;;;;26.50;99.90;;;;;;5044765;28;20309;-73
2022/08/23 10:36:15;;;;;;;;;;;26.60;99.90;;;;;;5035503;28;19925;-77
2022/08/23 10:39:04;;;;;;;;;;;26.70;99.90;;;;;;5038730;28;19913;-77
2022/08/23 10:41:30;;;;;;;;;;;26.40;99.90;;;;;;5042268;28;19941;-73
2022/08/23 10:44:07;;;;;;;;;;;26.50;99.90;;;;;;5047902;28;20367;-77
2022/08/23 10:46:39;;;;;;;;;;;26.30;99.90;;;;;;5043045;28;20268;-76
2022/08/23 10:49:06;;;;;;;;;;;25.90;99.90;;;;;;5044296;28;19917;-77
2022/08/23 10:51:39;;;;;;;;;;;25.60;99.90;;;;;;5044923;28;19924;-73
2022/08/23 10:54:11;;;;;;;;;;;25.50;99.90;;;;;;5046911;28;19975;-76
2022/08/23 10:56:37;;;;;;;;;;;25.70;99.90;;;;;;5038710;28;19913;-77
2022/08/23 10:59:06;;;;;;;;;;;25.60;99.90;;;;;;5048131;28;19913;-77
2022/08/23 11:01:50;;;;;;;;;;;25.70;99.90;;;;;;5047305;28;20932;-73
2022/08/23 11:04:29;;;;;;;;;;;25.50;99.90;;;;;;5048656;28;19917;-73
2022/08/23 11:06:56;;;;;;;;;;;25.20;99.90;;;;;;5048284;28;20332;-77
2022/08/23 11:09:22;;;;;;;;;;;26.30;99.90;;;;;;5048783;28;20034;-76
2022/08/23 11:12:06;;;;;;;;;;;28.30;99.90;;;;;;5048021;28;20015;-76
2022/08/23 11:14:57;;;;;;;;;;;28.60;99.90;;;;;;5044388;28;20295;-77
2022/08/23 11:17:27;;;;;;;;;;;28.40;99.90;;;;;;5043357;28;20429;-73
2022/08/23 11:19:54;;;;;;;;;;;28.50;99.90;;;;;;5045854;28;19920;-74
2022/08/23 11:22:24;;;;;;;;;;;27.50;99.90;;;;;;5049343;28;19913;-76
2022/08/23 11:24:55;;;;;;;;;;;27.60;99.90;;;;;;5043989;28;19913;-76
2022/08/23 11:27:24;;;;;;;;;;;27.40;99.90;;;;;;5047195;28;19913;-76
2022/08/23 11:29:50;;;;;;;;;;;27.40;99.90;;;;;;5044972;28;19925;-73
2022/08/23 11:32:16;;;;;;;;;;;27.50;99.90;;;;;;5044699;28;19936;-74
2022/08/23 11:34:50;;;;;;;;;;;27.00;99.90;;;;;;5048201;28;19924;-74
2022/08/23 11:37:18;;;;;;;;;;;26.80;99.90;;;;;;5044026;28;19913;-73
2022/08/23 11:39:59;;;;;;;;;;;26.60;99.90;;;;;;5045745;28;19972;-76
2022/08/23 11:42:34;;;;;;;;;;;26.30;99.90;;;;;;5041466;28;20098;-74
2022/08/23 11:45:00;;;;;;;;;;;25.90;99.90;;;;;;5045049;28;19921;-74
2022/08/23 11:47:37;;;;;;;;;;;25.50;99.90;;;;;;5046848;28;20272;-76
2022/08/23 11:50:11;;;;;;;;;;;25.20;99.90;;;;;;5048057;28;20007;-76
2022/08/23 11:53:03;;;;;;;;;;;25.00;99.90;;;;;;5049842;28;19962;-76
2022/08/23 11:55:47;;;;;;;;;;;25.10;99.90;;;;;;5049263;28;19923;-74
2022/08/23 11:58:29;;;;;;;;;;;25.30;99.90;;;;;;5049914;28;19917;-76
2022/08/23 12:01:06;;;;;;;;;;;25.20;99.90;;;;;;5044563;28;19929;-73
2022/08/23 12:03:35;;;;;;;;;;;25.30;99.90;;;;;;5049891;28;19987;-77
2022/08/23 12:06:01;;;;;;;;;;;25.50;99.90;;;;;;5053262;28;20050;-77
2022/08/23 12:08:50;;;;;;;;;;;25.50;99.90;;;;;;5054236;28;20007;-73
2022/08/23 12:11:17;;;;;;;;;;;25.60;99.90;;;;;;5045032;28;20442;-76
2022/08/23 12:13:45;;;;;;;;;;;25.80;99.90;;;;;;5053564;28;19912;-74
2022/08/23 12:16:10;;;;;;;;;;;26.00;99.90;;;;;;5052320;28;19917;-79
2022/08/23 12:18:42;;;;;;;;;;;25.90;99.90;;;;;;5054412;28;20398;-74
2022/08/23 12:21:15;;;;;;;;;;;25.90;99.90;;;;;;5056481;28;19932;-73
2022/08/23 12:23:45;;;;;;;;;;;26.00;99.90;;;;;;5056276;28;19955;-76
2022/08/23 12:26:30;;;;;;;;;;;25.90;99.90;;;;;;5054459;28;19928;-77
2022/08/23 12:29:06;;;;;;;;;;;25.90;99.90;;;;;;5047810;28;19920;-75
2022/08/23 12:31:35;;;;;;;;;;;25.90;99.90;;;;;;5054270;28;20354;-75
2022/08/23 12:34:21;;;;;;;;;;;26.10;99.90;;;;;;5057668;28;19916;-73
2022/08/23 12:36:58;;;;;;;;;;;26.40;99.90;;;;;;5051003;28;19914;-73
2022/08/23 12:39:24;;;;;;;;;;;26.40;99.90;;;;;;5049285;28;19955;-76
2022/08/23 12:41:54;;;;;;;;;;;26.60;99.90;;;;;;5056199;28;20070;-77
2022/08/23 12:44:22;;;;;;;;;;;26.70;99.90;;;;;;5047558;28;19913;-75
2022/08/23 12:46:48;;;;;;;;;;;26.50;99.90;;;;;;5044679;28;20011;-74
2022/08/23 12:49:28;;;;;;;;;;;26.50;99.90;;;;;;5050992;28;20379;-76
2022/08/23 12:51:55;;;;;;;;;;;26.50;99.90;;;;;;5049179;28;19961;-75
2022/08/23 12:54:22;;;;;;;;;;;26.50;99.90;;;;;;5043702;28;19921;-75
2022/08/23 12:56:50;;;;;;;;;;;26.30;99.90;;;;;;5049699;28;19917;-76
2022/08/23 12:59:34;;;;;;;;;;;26.40;99.90;;;;;;5049329;28;19923;-76
2022/08/23 13:02:03;;;;;;;;;;;26.60;99.90;;;;;;5054010;28;19962;-76
2022/08/23 13:04:31;;;;;;;;;;;26.70;99.90;;;;;;5043206;28;19917;-75
2022/08/23 13:06:58;;;;;;;;;;;27.00;99.90;;;;;;5053558;28;19961;-75
2022/08/23 13:09:30;;;;;;;;;;;27.10;99.90;;;;;;5054397;28;19914;-75
2022/08/23 13:11:56;;;;;;;;;;;27.10;99.90;;;;;;5046870;28;19920;-76
2022/08/23 13:14:25;;;;;;;;;;;26.80;99.90;;;;;;5044831;28;19951;-72
2022/08/23 13:16:50;;;;;;;;;;;26.30;99.90;;;;;;5042361;28;19917;-72
2022/08/23 13:19:22;;;;;;;;;;;26.30;99.90;;;;;;5052267;28;20407;-75
2022/08/23 13:21:47;;;;;;;;;;;26.00;99.90;;;;;;5052827;28;20314;-73
2022/08/23 13:24:34;;;;;;;;;;;26.10;99.90;;;;;;5048016;28;19912;-72
2022/08/23 13:27:30;;;;;;;;;;;26.10;99.90;;;;;;5043456;28;19923;-72
2022/08/23 13:29:55;;;;;;;;;;;26.10;99.90;;;;;;5034301;28;20360;-71
2022/08/23 13:32:30;;;;;;;;;;;25.80;99.90;;;;;;5045126;28;19979;-75
2022/08/23 13:35:14;;;;;;;;;;;25.90;99.90;;;;;;5047442;28;19917;-75
2022/08/23 13:37:43;;;;;;;;;;;25.60;99.90;;;;;;5051460;28;19936;-76
2022/08/23 13:40:12;;;;;;;;;;;25.80;99.90;;;;;;5046473;28;19913;-72
2022/08/23 13:42:47;;;;;;;;;;;26.00;99.90;;;;;;5042844;28;20426;-72
2022/08/23 13:45:14;;;;;;;;;;;26.00;99.90;;;;;;5043793;28;20272;-75
2022/08/23 13:47:45;;;;;;;;;;;26.30;99.90;;;;;;5042556;28;19920;-74
2022/08/23 13:50:14;;;;;;;;;;;26.70;99.90;;;;;;5048215;28;19958;-74
2022/08/23 13:52:40;;;;;;;;;;;26.50;99.90;;;;;;5046177;28;20012;-73
2022/08/23 13:55:05;;;;;;;;;;;26.80;99.90;;;;;;5051322;28;20019;-73
2022/08/23 13:57:35;;;;;;;;;;;27.70;99.90;;;;;;5053338;28;19924;-75
2022/08/23 14:00:02;;;;;;;;;;;27.90;99.90;;;;;;5054006;28;20019;-72
2022/08/23 14:02:28;;;;;;;;;;;28.40;99.90;;;;;;5050145;28;20465;-72
2022/08/23 14:04:53;;;;;;;;;;;28.40;99.90;;;;;;5042526;28;19913;-72
2022/08/23 14:07:19;;;;;;;;;;;28.30;99.90;;;;;;5039520;28;19920;-72
2022/08/23 14:09:45;;;;;;;;;;;27.60;99.90;;;;;;5046513;28;19913;-74
2022/08/23 14:12:13;;;;;;;;;;;27.40;99.90;;;;;;5046104;28;20405;-75
2022/08/23 14:14:39;;;;;;;;;;;27.80;99.90;;;;;;5047452;28;19921;-72
2022/08/23 14:17:04;;;;;;;;;;;28.20;99.90;;;;;;5046371;28;19917;-73
2022/08/23 14:19:30;;;;;;;;;;;27.80;99.90;;;;;;5048570;28;19917;-75
2022/08/23 14:21:56;;;;;;;;;;;27.00;99.90;;;;;;5049160;28;19921;-76
2022/08/23 14:24:22;;;;;;;;;;;26.70;99.90;;;;;;5049885;28;20410;-72
2022/08/23 14:26:47;;;;;;;;;;;26.70;99.90;;;;;;5046491;28;20007;-75
2022/08/23 14:29:13;;;;;;;;;;;26.70;99.90;;;;;;5046992;28;19924;-77
2022/08/23 14:31:39;;;;;;;;;;;26.50;99.90;;;;;;5040183;28;19917;-73
2022/08/23 14:34:05;;;;;;;;;;;26.10;99.90;;;;;;5040051;28;19927;-73
2022/08/23 14:36:30;;;;;;;;;;;26.30;99.90;;;;;;5043377;28;20007;-73